Wormit, United Kingdom

9:53 AM GMT on December 11, 2016 (GMT +0000)
West End | | Change Station

Elev 187 ft 56.46 °N, 3.02 °W | Updated 48 seconds ago

Overcast
Overcast
43.9 °F
Feels Like 40 °F
N
6.0
Wind Variable Wind from North
Gusts 10.0 mph

Today
High -- | Low -- °F
--% Chance of Precip.
Yesterday
High -- | Low -- °F
Precip. -- in
Pressure 30.01 in
Visibility 6.2 miles
Clouds Mostly Cloudy 4500 ft
Scattered Clouds 15000 ft
Windchill 40 °F
Dew Point 32 °F
Humidity 62%
Rainfall 0.00 in
Snow Depth Not available.
8:36 AM 3:34 PM
Waxing Gibbous, 90% visible
METAR EGQL 110850Z 26012KT 9999 BKN045 SCT150 07/04 Q1016 BLU
Pressure 30.01 in
Visibility 6.2 miles
Clouds Mostly Cloudy 4500 ft
Scattered Clouds 15000 ft
Windchill 40 °F
Dew Point 32 °F
Humidity 62%
Rainfall 0.00 in
Snow Depth Not available.
8:36 AM 3:34 PM
Waxing Gibbous, 90% visible
METAR EGQL 110850Z 26012KT 9999 BKN045 SCT150 07/04 Q1016 BLU

10-Day Weather Forecast

×

Almanac

Astronomy

Dec. 11, 2016 Rise Set
Actual Time
Civil Twilight
Nautical Twilight
Astronomical Twilight
Moon
Length of Visible Light
Length of Day
Tomorrow will be .
, % of the Moon is Illuminated

Today's Extremes

Country Highs Country Lows

Community

WunderPhotos

Upload Photos

1,956,704 photos uploaded!

WunderBlog® & News

Nearby

Air Quality

  Air Quality AQ Index Pollutant
Not available.

Snow Depth

Station Depth Elevation

Earthquake Activity

City Distance Mag. Time & Date
Minimum magnitude displayed is 2.5.

Coastal Water Temperatures

Place Temperature

Stations

Nearby Weather Stations

Station Location Temp. Windchill Dew Point Humidity Wind Precip. Elev Updated Type